createdAt,value
2023-03-21T00:00:35.967Z,8.89
2023-03-21T00:01:38.485Z,8.96
2023-03-21T00:02:41.365Z,8.95
2023-03-21T00:03:44.147Z,9.00
2023-03-21T00:04:52.292Z,9.01
2023-03-21T00:05:56.311Z,8.96
2023-03-21T00:06:58.881Z,8.97
2023-03-21T00:08:02.672Z,8.91
2023-03-21T00:09:05.369Z,8.93
2023-03-21T00:10:15.416Z,8.92
2023-03-21T00:11:21.807Z,8.89
2023-03-21T00:12:24.323Z,8.94
2023-03-21T00:13:28.502Z,9.01
2023-03-21T00:14:31.162Z,8.89
2023-03-21T00:15:41.325Z,8.92
2023-03-21T00:16:51.961Z,8.94
2023-03-21T00:18:03.570Z,8.98
2023-03-21T00:19:07.048Z,8.95
2023-03-21T00:20:15.451Z,8.98
2023-03-21T00:22:43.060Z,8.96
2023-03-21T00:23:49.059Z,9.02
2023-03-21T00:24:52.412Z,8.99
2023-03-21T00:25:54.944Z,8.92
2023-03-21T00:27:06.031Z,8.93
2023-03-21T00:28:18.337Z,9.20
2023-03-21T00:29:20.741Z,8.99
2023-03-21T00:30:24.095Z,8.97
2023-03-21T00:31:26.734Z,8.97
2023-03-21T00:32:29.260Z,8.96
2023-03-21T00:33:31.775Z,8.87
2023-03-21T00:34:42.881Z,8.90
2023-03-21T00:36:01.786Z,8.92
2023-03-21T00:37:07.418Z,8.96
2023-03-21T00:38:10.799Z,8.94
2023-03-21T00:39:14.261Z,9.01
2023-03-21T00:40:26.726Z,8.98
2023-03-21T00:41:42.032Z,8.98
2023-03-21T00:42:45.946Z,9.01
2023-03-21T00:43:48.464Z,8.97
2023-03-21T00:44:51.230Z,8.99
2023-03-21T00:45:53.748Z,8.90
2023-03-21T00:47:06.498Z,8.97
2023-03-21T00:48:10.838Z,8.95
2023-03-21T00:49:13.444Z,8.95
2023-03-21T00:50:16.786Z,8.94
2023-03-21T00:51:26.754Z,9.08
2023-03-21T00:52:40.253Z,9.02
2023-03-21T00:53:43.558Z,9.03
2023-03-21T00:54:46.195Z,9.01
2023-03-21T00:55:49.810Z,9.06
2023-03-21T00:56:52.315Z,9.01
2023-03-21T00:58:01.516Z,9.04
2023-03-21T00:59:04.566Z,9.04
2023-03-21T01:00:10.842Z,9.12
2023-03-21T01:01:13.504Z,9.10
2023-03-21T01:02:22.807Z,9.05
2023-03-21T01:03:26.797Z,9.04
2023-03-21T01:04:29.397Z,9.04
2023-03-21T01:05:57.248Z,9.11
2023-03-21T01:07:00.247Z,9.01
2023-03-21T01:08:05.997Z,9.06
2023-03-21T01:09:19.448Z,9.20
2023-03-21T01:10:22.328Z,9.05
2023-03-21T01:11:28.566Z,9.14
2023-03-21T01:12:31.083Z,9.08
2023-03-21T01:13:36.368Z,9.09
2023-03-21T01:14:39.006Z,9.07
2023-03-21T01:15:48.015Z,9.13
2023-03-21T01:16:52.440Z,9.09
2023-03-21T01:17:54.970Z,8.99
2023-03-21T01:18:57.726Z,9.04
2023-03-21T01:20:00.497Z,9.03
2023-03-21T01:21:08.528Z,9.13
2023-03-21T01:22:11.287Z,9.04
2023-03-21T01:23:15.493Z,9.13
2023-03-21T01:24:17.891Z,9.09
2023-03-21T01:25:22.639Z,9.07
2023-03-21T01:26:25.932Z,9.02
2023-03-21T01:27:28.333Z,9.07
2023-03-21T01:28:30.982Z,9.13
2023-03-21T01:29:33.497Z,9.10
2023-03-21T01:30:41.711Z,9.10
2023-03-21T01:31:44.564Z,9.13
2023-03-21T01:32:47.412Z,9.10
2023-03-21T01:33:49.941Z,9.08
2023-03-21T01:34:52.574Z,9.04
2023-03-21T01:36:10.299Z,9.16
2023-03-21T01:37:15.140Z,9.12
2023-03-21T01:38:26.179Z,9.20
2023-03-21T01:39:28.817Z,9.15
2023-03-21T01:40:31.699Z,9.19
2023-03-21T01:41:45.745Z,9.20
2023-03-21T01:42:54.624Z,9.19
2023-03-21T01:43:58.343Z,9.22
2023-03-21T01:45:44.679Z,9.30
2023-03-21T01:47:03.658Z,9.17
2023-03-21T01:48:38.906Z,9.26
2023-03-21T01:49:46.498Z,9.24
2023-03-21T01:50:56.906Z,9.22
2023-03-21T01:52:21.256Z,9.23
2023-03-21T01:53:31.227Z,9.27
2023-03-21T01:54:38.674Z,9.26
2023-03-21T01:55:42.035Z,9.23
2023-03-21T01:56:57.870Z,9.37
2023-03-21T01:58:07.087Z,9.30
2023-03-21T01:59:32.195Z,9.39
2023-03-21T02:01:04.982Z,9.23
2023-03-21T02:02:28.475Z,9.41
2023-03-21T02:03:54.692Z,9.23
2023-03-21T02:05:47.196Z,9.34
2023-03-21T02:06:51.757Z,9.34
2023-03-21T02:08:17.081Z,9.14
2023-03-21T02:09:24.157Z,9.27
2023-03-21T02:10:29.677Z,9.19
2023-03-21T02:11:33.759Z,9.17
2023-03-21T02:12:36.409Z,9.15
2023-03-21T02:13:39.290Z,9.14
2023-03-21T02:14:45.520Z,9.14
2023-03-21T02:16:11.321Z,9.09
2023-03-21T02:17:30.767Z,9.33
2023-03-21T02:19:03.889Z,9.43
2023-03-21T02:20:25.455Z,9.31
2023-03-21T02:21:41.093Z,9.35
2023-03-21T02:22:50.691Z,9.16
2023-03-21T02:24:10.609Z,9.30
2023-03-21T02:25:27.648Z,9.36
2023-03-21T02:26:52.479Z,9.34
2023-03-21T02:28:19.380Z,9.34
2023-03-21T02:29:43.255Z,9.44
2023-03-21T02:30:58.133Z,9.28
2023-03-21T02:32:36.547Z,9.44
2023-03-21T02:33:47.456Z,9.24
2023-03-21T02:35:18.180Z,9.43
2023-03-21T02:36:56.218Z,9.46
2023-03-21T02:38:18.297Z,9.47
2023-03-21T02:39:23.752Z,9.36
2023-03-21T02:40:37.962Z,9.38
2023-03-21T02:41:59.103Z,9.23
2023-03-21T02:43:22.999Z,9.36
2023-03-21T02:44:32.597Z,9.27
2023-03-21T02:45:58.206Z,9.50
2023-03-21T02:47:06.652Z,9.28
2023-03-21T02:48:44.537Z,9.35
2023-03-21T02:50:04.272Z,9.41
2023-03-21T02:51:11.232Z,9.29
2023-03-21T02:52:35.400Z,9.36
2023-03-21T02:53:44.887Z,9.26
2023-03-21T02:54:49.868Z,9.34
2023-03-21T02:55:57.553Z,9.29
2023-03-21T02:57:04.512Z,9.32
2023-03-21T02:58:13.562Z,9.36
2023-03-21T02:59:30.673Z,9.23
2023-03-21T03:00:37.273Z,9.21
2023-03-21T03:01:40.646Z,9.25
2023-03-21T03:02:43.762Z,9.26
2023-03-21T03:03:47.630Z,9.25
2023-03-21T03:04:50.240Z,9.25
2023-03-21T03:05:57.201Z,9.37
2023-03-21T03:07:27.925Z,9.50
2023-03-21T03:08:43.203Z,9.39
2023-03-21T03:10:11.244Z,9.22
2023-03-21T03:11:29.843Z,9.38
2023-03-21T03:12:35.483Z,9.27
2023-03-21T03:14:35.884Z,9.43
2023-03-21T03:15:48.163Z,9.41
2023-03-21T03:17:02.853Z,9.43
2023-03-21T03:18:21.216Z,9.39
2023-03-21T03:19:44.658Z,9.35
2023-03-21T03:21:26.248Z,9.47
2023-03-21T03:22:39.461Z,9.45
2023-03-21T03:23:47.256Z,9.40
2023-03-21T03:25:02.785Z,9.36
2023-03-21T03:26:21.822Z,9.49
2023-03-21T03:27:29.858Z,9.46
2023-03-21T03:28:41.383Z,9.39
2023-03-21T03:29:52.176Z,9.36
2023-03-21T03:31:09.303Z,9.36
2023-03-21T03:32:25.696Z,9.43
2023-03-21T03:33:29.745Z,9.41
2023-03-21T03:34:49.787Z,9.49
2023-03-21T03:36:04.927Z,9.41
2023-03-21T03:37:17.992Z,9.44
2023-03-21T03:38:24.103Z,9.40
2023-03-21T03:39:35.989Z,9.42
2023-03-21T03:40:46.539Z,9.50
2023-03-21T03:42:27.110Z,9.43
2023-03-21T03:43:47.021Z,9.37
2023-03-21T03:44:49.902Z,9.30
2023-03-21T03:45:58.784Z,9.50
2023-03-21T03:47:17.538Z,9.50
2023-03-21T03:48:35.178Z,9.46
2023-03-21T03:49:52.668Z,9.48
2023-03-21T03:51:03.611Z,9.45
2023-03-21T03:52:55.398Z,9.53
2023-03-21T03:54:10.343Z,9.48
2023-03-21T03:55:16.339Z,9.42
2023-03-21T03:56:21.001Z,9.35
2023-03-21T03:57:26.274Z,9.43
2023-03-21T03:58:44.542Z,9.36
2023-03-21T03:59:49.198Z,9.41
2023-03-21T04:00:56.040Z,9.44
2023-03-21T04:01:58.952Z,9.42
2023-03-21T04:03:01.712Z,9.40
2023-03-21T04:04:13.030Z,9.42
2023-03-21T04:05:21.198Z,9.42
2023-03-21T04:06:24.489Z,9.46
2023-03-21T04:07:27.987Z,9.46
2023-03-21T04:08:34.565Z,9.47
2023-03-21T04:09:44.204Z,9.55
2023-03-21T04:10:49.571Z,9.48
2023-03-21T04:11:52.204Z,9.44
2023-03-21T04:12:55.329Z,9.53
2023-03-21T04:14:06.368Z,9.46
2023-03-21T04:15:11.290Z,9.44
2023-03-21T04:16:19.377Z,9.44
2023-03-21T04:17:22.330Z,9.43
2023-03-21T04:18:24.854Z,9.49
2023-03-21T04:19:27.372Z,9.48
2023-03-21T04:20:36.883Z,9.50
2023-03-21T04:21:40.571Z,9.46
2023-03-21T04:22:43.478Z,9.50
2023-03-21T04:23:46.099Z,9.48
2023-03-21T04:24:48.616Z,9.54
2023-03-21T04:25:56.602Z,9.48
2023-03-21T04:27:10.108Z,9.56
2023-03-21T04:28:15.738Z,9.56
2023-03-21T04:29:22.338Z,9.50
2023-03-21T04:31:01.394Z,9.57
2023-03-21T04:32:16.288Z,9.51
2023-03-21T04:33:27.275Z,9.53
2023-03-21T04:34:32.784Z,9.50
2023-03-21T04:35:38.442Z,9.50
2023-03-21T04:36:49.606Z,9.53
2023-03-21T04:37:52.100Z,9.54
2023-03-21T04:38:55.100Z,9.54
2023-03-21T04:39:57.504Z,9.49
2023-03-21T04:41:01.344Z,9.54
2023-03-21T04:42:05.789Z,9.56
2023-03-21T04:43:08.322Z,9.57
2023-03-21T04:44:16.616Z,9.56
2023-03-21T04:45:19.479Z,9.45
2023-03-21T04:46:23.306Z,9.54
2023-03-21T04:47:26.668Z,9.54
2023-03-21T04:48:30.995Z,9.55
2023-03-21T04:49:35.429Z,9.50
2023-03-21T04:50:38.708Z,9.50
2023-03-21T04:51:41.788Z,9.53
2023-03-21T04:52:47.193Z,9.51
2023-03-21T04:53:52.579Z,9.49
2023-03-21T04:54:55.367Z,9.59
2023-03-21T04:55:58.711Z,9.54
2023-03-21T04:57:01.477Z,9.53
2023-03-21T04:58:04.954Z,9.53
2023-03-21T04:59:10.835Z,9.57
2023-03-21T05:00:15.042Z,9.52
2023-03-21T05:01:20.262Z,9.45
2023-03-21T05:02:23.674Z,9.48
2023-03-21T05:03:26.197Z,9.43
2023-03-21T05:04:29.011Z,9.49
2023-03-21T05:05:31.854Z,9.53
2023-03-21T05:06:34.484Z,9.60
2023-03-21T05:07:38.575Z,9.56
2023-03-21T05:08:41.556Z,9.50
2023-03-21T05:09:46.845Z,9.54
2023-03-21T05:10:52.963Z,9.53
2023-03-21T05:11:56.678Z,9.59
2023-03-21T05:12:59.325Z,9.59
2023-03-21T05:14:05.323Z,9.62
2023-03-21T05:15:08.682Z,9.55
2023-03-21T05:16:12.179Z,9.57
2023-03-21T05:17:23.335Z,9.57
2023-03-21T05:18:26.807Z,9.56
2023-03-21T05:19:40.758Z,9.62
2023-03-21T05:20:43.609Z,9.59
2023-03-21T05:21:46.725Z,9.61
2023-03-21T05:22:53.208Z,9.64
2023-03-21T05:23:58.437Z,9.63
2023-03-21T05:25:01.008Z,9.55
2023-03-21T05:26:17.346Z,9.55
2023-03-21T05:27:36.572Z,9.51
2023-03-21T05:28:44.712Z,9.55
2023-03-21T05:29:47.691Z,9.60
2023-03-21T05:30:51.561Z,9.58
2023-03-21T05:31:54.544Z,9.52
2023-03-21T05:32:57.551Z,9.48
2023-03-21T05:34:00.533Z,9.62
2023-03-21T05:35:03.175Z,9.56
2023-03-21T05:36:05.873Z,9.61
2023-03-21T05:37:09.178Z,9.65
2023-03-21T05:38:24.419Z,9.65
2023-03-21T05:39:28.742Z,9.62
2023-03-21T05:40:47.458Z,9.75
2023-03-21T05:41:49.870Z,9.62
2023-03-21T05:42:52.523Z,9.62
2023-03-21T05:43:58.861Z,9.61
2023-03-21T05:45:01.624Z,9.61
2023-03-21T05:46:07.184Z,9.62
2023-03-21T05:47:09.783Z,9.64
2023-03-21T05:48:17.505Z,9.60
2023-03-21T05:49:38.947Z,9.62
2023-03-21T05:50:42.665Z,9.62
2023-03-21T05:51:51.310Z,9.74
2023-03-21T05:52:53.947Z,9.63
2023-03-21T05:53:56.469Z,9.63
2023-03-21T05:54:59.228Z,9.64
2023-03-21T05:56:03.674Z,9.68
2023-03-21T05:57:28.889Z,9.67
2023-03-21T05:58:37.750Z,9.68
2023-03-21T05:59:40.520Z,9.73
2023-03-21T06:00:43.515Z,9.73
2023-03-21T06:02:00.808Z,9.76
2023-03-21T06:03:03.358Z,9.69
2023-03-21T06:04:27.678Z,9.70
2023-03-21T06:05:30.463Z,9.66
2023-03-21T06:06:33.681Z,9.66
2023-03-21T06:07:37.280Z,9.63
2023-03-21T06:08:40.043Z,9.70
2023-03-21T06:09:42.562Z,9.66
2023-03-21T06:10:45.083Z,9.74
2023-03-21T06:11:50.968Z,9.83
2023-03-21T06:13:29.243Z,9.73
2023-03-21T06:14:31.766Z,9.73
2023-03-21T06:16:03.622Z,9.72
2023-03-21T06:17:09.207Z,9.74
2023-03-21T06:18:18.207Z,9.74
2023-03-21T06:19:31.412Z,9.86
2023-03-21T06:20:44.011Z,9.80
2023-03-21T06:21:48.813Z,9.85
2023-03-21T06:22:51.330Z,9.82
2023-03-21T06:23:54.245Z,9.74
2023-03-21T06:24:56.732Z,9.77
2023-03-21T06:25:59.267Z,9.80
2023-03-21T06:27:04.071Z,9.72
2023-03-21T06:28:17.996Z,9.80
2023-03-21T06:29:20.494Z,9.78
2023-03-21T06:30:24.969Z,9.77
2023-03-21T06:31:49.686Z,9.84
2023-03-21T06:32:53.136Z,9.80
2023-03-21T06:33:56.016Z,9.78
2023-03-21T06:34:58.775Z,9.85
2023-03-21T06:36:01.314Z,9.81
2023-03-21T06:37:04.656Z,9.84
2023-03-21T06:38:09.817Z,9.88
2023-03-21T06:39:13.814Z,9.85
2023-03-21T06:40:17.381Z,9.89
2023-03-21T06:41:20.865Z,9.80
2023-03-21T06:42:33.108Z,9.76
2023-03-21T06:43:42.587Z,9.71
2023-03-21T06:44:45.101Z,9.79
2023-03-21T06:45:50.388Z,9.85
2023-03-21T06:46:53.175Z,9.91
2023-03-21T06:47:55.832Z,9.89
2023-03-21T06:49:22.671Z,10.05
2023-03-21T06:50:25.315Z,9.93
2023-03-21T06:51:27.836Z,9.97
2023-03-21T06:52:51.151Z,9.92
2023-03-21T06:53:53.871Z,9.84
2023-03-21T06:55:19.432Z,9.81
2023-03-21T06:56:22.310Z,9.80
2023-03-21T06:57:24.954Z,9.79
2023-03-21T06:58:28.201Z,9.77
2023-03-21T06:59:31.317Z,9.80
2023-03-21T07:00:39.286Z,9.85
2023-03-21T07:01:44.875Z,9.90
2023-03-21T07:02:50.628Z,9.89
2023-03-21T07:03:56.769Z,9.82
2023-03-21T07:05:00.001Z,9.76
2023-03-21T07:06:07.315Z,9.94
2023-03-21T07:07:10.438Z,9.94
2023-03-21T07:08:14.280Z,9.97
2023-03-21T07:09:18.005Z,9.93
2023-03-21T07:10:21.000Z,9.91
2023-03-21T07:11:30.125Z,9.91
2023-03-21T07:12:34.443Z,9.93
2023-03-21T07:13:55.582Z,9.91
2023-03-21T07:14:59.172Z,9.90
2023-03-21T07:16:02.194Z,9.94
2023-03-21T07:17:04.814Z,9.93
2023-03-21T07:18:09.853Z,9.93
2023-03-21T07:19:12.487Z,9.82
2023-03-21T07:20:15.128Z,9.92
2023-03-21T07:21:18.008Z,9.90
2023-03-21T07:22:20.890Z,9.91
2023-03-21T07:23:26.298Z,9.90
2023-03-21T07:24:29.772Z,9.85
2023-03-21T07:25:32.362Z,9.89
2023-03-21T07:26:34.934Z,9.92
2023-03-21T07:27:40.926Z,9.94
2023-03-21T07:28:44.302Z,10.00
2023-03-21T07:29:47.546Z,9.93
2023-03-21T07:30:58.454Z,10.07
2023-03-21T07:32:01.644Z,9.98
2023-03-21T07:33:04.960Z,10.02
2023-03-21T07:34:07.459Z,9.99
2023-03-21T07:35:14.904Z,10.12
2023-03-21T07:36:17.850Z,10.07
2023-03-21T07:37:21.024Z,10.05
2023-03-21T07:38:24.740Z,10.15
2023-03-21T07:39:27.861Z,10.17
2023-03-21T07:40:31.229Z,10.06
2023-03-21T07:41:34.103Z,10.09
2023-03-21T07:42:50.675Z,10.10
2023-03-21T07:44:04.348Z,10.06
2023-03-21T07:45:10.840Z,10.16
2023-03-21T07:46:13.504Z,10.07
2023-03-21T07:47:16.112Z,10.13
2023-03-21T07:48:19.273Z,10.14
2023-03-21T07:49:21.753Z,10.15
2023-03-21T07:50:24.288Z,10.15
2023-03-21T07:51:26.801Z,10.21
2023-03-21T07:52:29.188Z,10.17
2023-03-21T07:53:31.713Z,10.21
2023-03-21T07:54:34.355Z,10.18
2023-03-21T07:55:37.190Z,10.26
2023-03-21T07:56:39.876Z,10.28
2023-03-21T07:57:42.410Z,10.24
2023-03-21T07:58:44.921Z,10.31
2023-03-21T07:59:47.432Z,10.37
2023-03-21T08:00:50.078Z,10.26
2023-03-21T08:01:52.771Z,10.25
2023-03-21T08:02:58.848Z,10.41
2023-03-21T08:04:01.480Z,10.33
2023-03-21T08:05:05.321Z,10.43
2023-03-21T08:06:08.317Z,10.36
2023-03-21T08:07:11.685Z,10.40
2023-03-21T08:08:14.204Z,10.31
2023-03-21T08:09:16.722Z,10.31
2023-03-21T08:10:19.479Z,10.33
2023-03-21T08:11:22.245Z,10.35
2023-03-21T08:12:25.127Z,10.44
2023-03-21T08:13:27.879Z,10.39
2023-03-21T08:14:30.643Z,10.32
2023-03-21T08:15:33.162Z,10.33
2023-03-21T08:16:35.728Z,10.39
2023-03-21T08:17:39.895Z,10.48
2023-03-21T08:18:42.892Z,10.43
2023-03-21T08:19:45.649Z,10.54
2023-03-21T08:20:55.730Z,10.62
2023-03-21T08:21:59.931Z,10.55
2023-03-21T08:23:02.570Z,10.55
2023-03-21T08:24:07.132Z,10.54
2023-03-21T08:25:13.858Z,10.57
2023-03-21T08:26:18.533Z,10.43
2023-03-21T08:27:21.057Z,10.47
2023-03-21T08:28:23.820Z,10.55
2023-03-21T08:29:27.177Z,10.43
2023-03-21T08:30:29.899Z,10.47
2023-03-21T08:31:32.717Z,10.49
2023-03-21T08:32:35.221Z,10.50
2023-03-21T08:33:37.979Z,10.42
2023-03-21T08:34:42.779Z,10.40
2023-03-21T08:35:46.270Z,10.53
2023-03-21T08:36:49.019Z,10.47
2023-03-21T08:37:51.660Z,10.48
2023-03-21T08:39:05.254Z,10.42
2023-03-21T08:40:11.521Z,10.45
2023-03-21T08:41:14.942Z,10.51
2023-03-21T08:42:18.190Z,10.48
2023-03-21T08:43:20.829Z,10.45
2023-03-21T08:44:25.381Z,10.54
2023-03-21T08:45:28.028Z,10.53
2023-03-21T08:46:30.711Z,10.49
2023-03-21T08:47:33.308Z,10.42
2023-03-21T08:48:38.855Z,10.44
2023-03-21T08:49:42.310Z,10.47
2023-03-21T08:50:44.950Z,10.39
2023-03-21T08:51:47.469Z,10.48
2023-03-21T08:52:50.472Z,10.48
2023-03-21T08:53:53.064Z,10.41
2023-03-21T08:54:55.753Z,10.31
2023-03-21T08:55:58.391Z,10.26
2023-03-21T08:57:01.152Z,10.25
2023-03-21T08:58:03.796Z,10.28
2023-03-21T08:59:06.195Z,10.36
2023-03-21T09:00:14.674Z,10.45
2023-03-21T09:01:17.234Z,10.33
2023-03-21T09:02:19.767Z,10.33
2023-03-21T09:03:22.396Z,10.42
2023-03-21T09:04:26.224Z,10.46
2023-03-21T09:05:28.759Z,10.37
2023-03-21T09:06:33.561Z,10.45
2023-03-21T09:07:36.562Z,10.43
2023-03-21T09:08:39.455Z,10.53
2023-03-21T09:09:42.330Z,10.58
2023-03-21T09:10:44.854Z,10.51
2023-03-21T09:11:47.365Z,10.54
2023-03-21T09:12:51.819Z,10.64
2023-03-21T09:13:54.444Z,10.61
2023-03-21T09:14:57.084Z,10.59
2023-03-21T09:16:01.493Z,10.58
2023-03-21T09:17:04.181Z,10.56
2023-03-21T09:18:23.129Z,10.60
2023-03-21T09:19:26.019Z,10.61
2023-03-21T09:20:33.049Z,10.65
2023-03-21T09:21:36.214Z,10.77
2023-03-21T09:22:42.312Z,10.75
2023-03-21T09:23:45.448Z,10.72
2023-03-21T09:24:48.810Z,10.77
2023-03-21T09:25:51.572Z,10.83
2023-03-21T09:26:54.111Z,10.96
2023-03-21T09:27:58.191Z,10.86
2023-03-21T09:29:01.176Z,10.94
2023-03-21T09:30:06.108Z,11.04
2023-03-21T09:31:11.948Z,11.13
2023-03-21T09:32:14.507Z,10.96
2023-03-21T09:33:21.354Z,10.82
2023-03-21T09:34:25.658Z,10.92
2023-03-21T09:35:29.145Z,11.03
2023-03-21T09:36:35.148Z,10.99
2023-03-21T09:37:42.353Z,10.83
2023-03-21T09:38:46.788Z,10.91
2023-03-21T09:39:51.344Z,10.78
2023-03-21T09:41:12.459Z,10.79
2023-03-21T09:42:27.344Z,10.86
2023-03-21T09:43:47.379Z,11.05
2023-03-21T09:44:59.150Z,10.77
2023-03-21T09:46:26.084Z,10.95
2023-03-21T09:47:34.805Z,10.88
2023-03-21T09:48:57.138Z,10.94
2023-03-21T09:50:15.036Z,10.95
2023-03-21T09:51:19.549Z,10.94
2023-03-21T09:52:29.028Z,10.96
2023-03-21T09:53:39.961Z,11.00
2023-03-21T09:54:44.801Z,11.02
2023-03-21T09:55:47.996Z,11.04
2023-03-21T09:56:54.710Z,11.10
2023-03-21T09:57:57.237Z,10.80
2023-03-21T09:59:01.673Z,10.89
2023-03-21T10:00:09.475Z,11.01
2023-03-21T10:01:27.311Z,10.95
2023-03-21T10:02:38.401Z,11.03
2023-03-21T10:03:41.875Z,11.05
2023-03-21T10:04:46.663Z,11.03
2023-03-21T10:05:50.650Z,11.05
2023-03-21T10:07:02.276Z,11.25
2023-03-21T10:08:16.217Z,11.18
2023-03-21T10:09:23.035Z,11.24
2023-03-21T10:10:29.518Z,11.28
2023-03-21T10:11:45.000Z,11.25
2023-03-21T10:12:49.577Z,11.25
2023-03-21T10:14:01.926Z,11.06
2023-03-21T10:15:05.640Z,11.00
2023-03-21T10:16:27.481Z,11.19
2023-03-21T10:17:34.445Z,11.06
2023-03-21T10:18:39.849Z,10.88
2023-03-21T10:19:46.575Z,10.79
2023-03-21T10:20:51.009Z,10.77
2023-03-21T10:22:03.044Z,10.72
2023-03-21T10:23:09.013Z,10.67
2023-03-21T10:24:14.050Z,10.84
2023-03-21T10:25:44.611Z,10.80
2023-03-21T10:26:48.146Z,10.54
2023-03-21T10:27:52.704Z,10.59
2023-03-21T10:28:57.983Z,10.77
2023-03-21T10:30:01.210Z,10.68
2023-03-21T10:31:07.466Z,10.87
2023-03-21T10:32:13.931Z,10.81
2023-03-21T10:33:20.814Z,10.80
2023-03-21T10:34:44.589Z,10.90
2023-03-21T10:35:52.371Z,10.94
2023-03-21T10:36:54.982Z,10.96
2023-03-21T10:37:57.497Z,10.99
2023-03-21T10:39:02.061Z,11.15
2023-03-21T10:40:07.581Z,10.93
2023-03-21T10:41:11.658Z,10.94
2023-03-21T10:42:25.834Z,11.11
2023-03-21T10:43:28.218Z,10.77
2023-03-21T10:44:33.136Z,10.92
2023-03-21T10:45:36.319Z,11.01
2023-03-21T10:46:39.250Z,11.03
2023-03-21T10:47:42.188Z,10.92
2023-03-21T10:48:50.316Z,11.20
2023-03-21T10:50:10.262Z,11.21
2023-03-21T10:51:19.347Z,11.46
2023-03-21T10:52:27.752Z,11.52
2023-03-21T10:53:35.316Z,11.41
2023-03-21T10:54:37.838Z,11.39
2023-03-21T10:55:42.144Z,11.45
2023-03-21T10:56:57.053Z,11.49
2023-03-21T10:58:18.935Z,11.55
2023-03-21T10:59:23.548Z,11.41
2023-03-21T11:00:30.279Z,11.51
2023-03-21T11:01:39.364Z,11.52
2023-03-21T11:02:43.091Z,11.42
2023-03-21T11:03:48.273Z,11.44
2023-03-21T11:04:53.223Z,11.34
2023-03-21T11:05:57.520Z,11.39
2023-03-21T11:07:07.613Z,11.33
2023-03-21T11:08:16.232Z,11.44
2023-03-21T11:09:21.998Z,11.38
2023-03-21T11:10:33.653Z,11.47
2023-03-21T11:12:09.764Z,11.41
2023-03-21T11:13:25.246Z,11.48
2023-03-21T11:14:37.382Z,11.80
2023-03-21T11:15:53.092Z,11.77
2023-03-21T11:16:55.625Z,11.52
2023-03-21T11:18:13.243Z,11.65
2023-03-21T11:19:27.287Z,11.55
2023-03-21T11:20:31.620Z,11.56
2023-03-21T11:21:37.615Z,11.77
2023-03-21T11:22:43.641Z,11.68
2023-03-21T11:23:49.640Z,11.63
2023-03-21T11:24:54.532Z,11.72
2023-03-21T11:25:59.215Z,11.66
2023-03-21T11:27:07.374Z,11.92
2023-03-21T11:28:16.739Z,11.84
2023-03-21T11:29:31.504Z,11.75
2023-03-21T11:30:34.070Z,11.49
2023-03-21T11:31:40.738Z,11.39
2023-03-21T11:32:43.258Z,11.25
2023-03-21T11:33:57.208Z,11.50
2023-03-21T11:35:04.978Z,11.59
2023-03-21T11:36:28.513Z,11.73
2023-03-21T11:37:37.858Z,11.63
2023-03-21T11:38:40.633Z,11.69
2023-03-21T11:39:44.946Z,11.79
2023-03-21T11:40:56.944Z,11.76
2023-03-21T11:42:00.095Z,11.61
2023-03-21T11:43:24.427Z,11.91
2023-03-21T11:44:41.603Z,11.85
2023-03-21T11:45:58.494Z,11.71
2023-03-21T11:47:01.510Z,11.40
2023-03-21T11:48:13.561Z,11.53
2023-03-21T11:49:16.155Z,11.32
2023-03-21T11:50:27.193Z,11.21
2023-03-21T11:51:43.750Z,11.49
2023-03-21T11:53:03.919Z,11.32
2023-03-21T11:54:28.532Z,11.22
2023-03-21T11:55:41.771Z,11.15
2023-03-21T11:56:52.514Z,11.22
2023-03-21T11:58:13.531Z,11.28
2023-03-21T11:59:17.473Z,11.23
2023-03-21T12:00:33.439Z,11.28
2023-03-21T12:01:53.957Z,11.40
2023-03-21T12:03:32.746Z,11.35
2023-03-21T12:05:00.556Z,11.53
2023-03-21T12:06:12.799Z,11.53
2023-03-21T12:07:33.081Z,11.60
2023-03-21T12:08:46.759Z,11.32
2023-03-21T12:10:30.448Z,11.39
2023-03-21T12:11:41.722Z,11.33
2023-03-21T12:12:54.228Z,11.23
2023-03-21T12:14:24.924Z,11.45
2023-03-21T12:15:39.537Z,11.35
2023-03-21T12:16:57.328Z,11.28
2023-03-21T12:18:21.449Z,11.28
2023-03-21T12:19:45.704Z,11.19
2023-03-21T12:20:48.089Z,11.12
2023-03-21T12:22:12.094Z,11.19
2023-03-21T12:23:32.806Z,11.23
2023-03-21T12:24:48.088Z,11.23
2023-03-21T12:26:02.491Z,11.19
2023-03-21T12:27:13.900Z,11.16
2023-03-21T12:28:33.227Z,11.16
2023-03-21T12:29:50.025Z,11.14
2023-03-21T12:31:42.418Z,11.16
2023-03-21T12:33:13.899Z,11.15
2023-03-21T12:34:24.933Z,11.13
2023-03-21T12:36:17.138Z,11.02
2023-03-21T12:37:33.693Z,11.15
2023-03-21T12:39:29.385Z,11.17
2023-03-21T12:40:55.561Z,11.19
2023-03-21T12:42:18.598Z,11.18
2023-03-21T12:43:51.780Z,11.42
2023-03-21T12:45:06.022Z,11.36
2023-03-21T12:46:42.425Z,11.34
2023-03-21T12:47:51.505Z,11.27
2023-03-21T12:49:00.483Z,11.35
2023-03-21T12:50:15.581Z,11.32
2023-03-21T12:51:26.625Z,11.28
2023-03-21T12:53:01.186Z,11.36
2023-03-21T12:54:03.594Z,11.18
2023-03-21T12:55:11.021Z,11.33
2023-03-21T12:56:20.868Z,11.34
2023-03-21T12:57:35.618Z,11.40
2023-03-21T12:58:47.989Z,11.24
2023-03-21T13:00:01.788Z,11.36
2023-03-21T13:01:06.902Z,11.19
2023-03-21T13:02:18.592Z,11.20
2023-03-21T13:03:42.109Z,11.33
2023-03-21T13:04:53.156Z,11.26
2023-03-21T13:05:59.153Z,11.36
2023-03-21T13:07:05.632Z,11.31
2023-03-21T13:08:32.164Z,11.41
2023-03-21T13:09:38.546Z,11.44
2023-03-21T13:10:43.677Z,11.38
2023-03-21T13:11:48.116Z,11.47
2023-03-21T13:13:02.403Z,11.63
2023-03-21T13:14:06.965Z,11.54
2023-03-21T13:15:21.727Z,11.53
2023-03-21T13:16:41.365Z,11.60
2023-03-21T13:17:51.616Z,11.50
2023-03-21T13:19:07.820Z,11.54
2023-03-21T13:20:26.521Z,11.56
2023-03-21T13:22:11.044Z,11.49
2023-03-21T13:23:13.934Z,11.37
2023-03-21T13:24:37.688Z,11.57
2023-03-21T13:25:47.295Z,11.49
2023-03-21T13:26:54.368Z,11.53
2023-03-21T13:28:05.424Z,11.73
2023-03-21T13:29:32.891Z,11.83
2023-03-21T13:30:35.703Z,11.61
2023-03-21T13:31:51.787Z,11.61
2023-03-21T13:33:16.813Z,11.70
2023-03-21T13:34:22.931Z,11.80
2023-03-21T13:35:34.356Z,11.95
2023-03-21T13:36:45.613Z,11.83
2023-03-21T13:37:58.454Z,11.90
2023-03-21T13:39:05.666Z,11.71
2023-03-21T13:40:41.026Z,11.78
2023-03-21T13:41:47.421Z,11.84
2023-03-21T13:43:00.263Z,12.09
2023-03-21T13:44:02.668Z,11.85
2023-03-21T13:45:09.932Z,11.79
2023-03-21T13:46:13.694Z,11.77
2023-03-21T13:47:37.707Z,11.99
2023-03-21T13:48:59.956Z,12.21
2023-03-21T13:50:17.694Z,12.14
2023-03-21T13:51:51.507Z,12.03
2023-03-21T13:53:15.529Z,12.06
2023-03-21T13:54:19.470Z,12.00
2023-03-21T13:55:22.107Z,11.95
2023-03-21T13:56:24.990Z,11.88
2023-03-21T13:57:27.421Z,11.75
2023-03-21T13:58:50.317Z,11.93
2023-03-21T14:00:42.033Z,11.96
2023-03-21T14:02:12.760Z,11.86
2023-03-21T14:03:20.674Z,11.77
2023-03-21T14:04:42.004Z,11.83
2023-03-21T14:05:50.142Z,11.72
2023-03-21T14:06:59.952Z,11.63
2023-03-21T14:08:15.198Z,11.60
2023-03-21T14:09:48.160Z,11.81
2023-03-21T14:10:56.436Z,11.72
2023-03-21T14:12:07.131Z,11.66
2023-03-21T14:13:17.449Z,11.75
2023-03-21T14:14:22.491Z,11.70
2023-03-21T14:15:29.802Z,11.70
2023-03-21T14:16:33.774Z,11.71
2023-03-21T14:17:36.408Z,11.53
2023-03-21T14:18:56.685Z,11.77
2023-03-21T14:20:39.051Z,11.86
2023-03-21T14:21:53.580Z,11.72
2023-03-21T14:22:56.570Z,11.54
2023-03-21T14:24:02.711Z,11.57
2023-03-21T14:25:12.646Z,11.59
2023-03-21T14:26:16.129Z,11.66
2023-03-21T14:27:19.849Z,11.59
2023-03-21T14:28:29.584Z,11.70
2023-03-21T14:29:35.360Z,11.74
2023-03-21T14:30:40.360Z,11.83
2023-03-21T14:31:47.011Z,11.88
2023-03-21T14:32:49.502Z,11.74
2023-03-21T14:33:56.217Z,11.71
2023-03-21T14:35:01.738Z,11.79
2023-03-21T14:36:09.041Z,11.75
2023-03-21T14:37:12.084Z,11.56
2023-03-21T14:38:26.701Z,11.65
2023-03-21T14:39:31.487Z,11.64
2023-03-21T14:40:33.910Z,11.53
2023-03-21T14:41:49.629Z,11.78
2023-03-21T14:42:53.043Z,11.64
2023-03-21T14:44:12.791Z,11.83
2023-03-21T14:45:25.520Z,11.93
2023-03-21T14:46:28.169Z,11.73
2023-03-21T14:47:32.344Z,11.76
2023-03-21T14:48:35.469Z,11.75
2023-03-21T14:49:38.828Z,11.85
2023-03-21T14:50:48.667Z,11.91
2023-03-21T14:51:53.470Z,11.79
2023-03-21T14:52:56.111Z,11.84
2023-03-21T14:53:58.628Z,11.88
2023-03-21T14:55:05.471Z,11.93
2023-03-21T14:56:27.193Z,11.89
2023-03-21T14:57:32.760Z,11.88
2023-03-21T14:58:39.193Z,11.91
2023-03-21T14:59:42.921Z,11.76
2023-03-21T15:00:50.116Z,11.75
2023-03-21T15:01:54.182Z,11.76
2023-03-21T15:02:59.644Z,11.80
2023-03-21T15:04:06.558Z,11.74
2023-03-21T15:05:19.071Z,11.75
2023-03-21T15:06:21.675Z,11.70
2023-03-21T15:07:33.080Z,11.94
2023-03-21T15:08:35.487Z,11.79
2023-03-21T15:09:38.119Z,11.74